sensor_id;sensor_type;location;lat;lon;timestamp;temperature;humidity
20200;DHT22;36284;37.236;-121.934;2023-07-16T00:01:06;36.60;93.60
20200;DHT22;36284;37.236;-121.934;2023-07-16T00:03:33;36.90;94.50
20200;DHT22;36284;37.236;-121.934;2023-07-16T00:06:00;36.90;93.90
20200;DHT22;36284;37.236;-121.934;2023-07-16T00:11:49;36.90;94.40
20200;DHT22;36284;37.236;-121.934;2023-07-16T00:14:17;36.70;94.60
20200;DHT22;36284;37.236;-121.934;2023-07-16T00:16:43;36.80;95.10
20200;DHT22;36284;37.236;-121.934;2023-07-16T00:19:11;36.10;95.00
20200;DHT22;36284;37.236;-121.934;2023-07-16T00:21:38;36.40;94.50
20200;DHT22;36284;37.236;-121.934;2023-07-16T00:24:05;36.20;94.70
20200;DHT22;36284;37.236;-121.934;2023-07-16T00:26:32;36.20;94.20
20200;DHT22;36284;37.236;-121.934;2023-07-16T00:28:59;36.20;94.40
20200;DHT22;36284;37.236;-121.934;2023-07-16T00:31:26;36.30;95.10
20200;DHT22;36284;37.236;-121.934;2023-07-16T00:33:53;36.30;95.60
20200;DHT22;36284;37.236;-121.934;2023-07-16T00:36:20;36.10;96.10
20200;DHT22;36284;37.236;-121.934;2023-07-16T00:38:47;36.10;96.10
20200;DHT22;36284;37.236;-121.934;2023-07-16T00:41:14;36.20;95.80
20200;DHT22;36284;37.236;-121.934;2023-07-16T00:43:41;35.80;95.70
20200;DHT22;36284;37.236;-121.934;2023-07-16T00:46:09;35.80;96.00
20200;DHT22;36284;37.236;-121.934;2023-07-16T00:48:37;35.60;96.00
20200;DHT22;36284;37.236;-121.934;2023-07-16T00:51:04;35.70;96.30
20200;DHT22;36284;37.236;-121.934;2023-07-16T00:53:32;35.80;96.30
20200;DHT22;36284;37.236;-121.934;2023-07-16T00:55:59;35.50;96.20
20200;DHT22;36284;37.236;-121.934;2023-07-16T00:58:26;35.30;96.10
20200;DHT22;36284;37.236;-121.934;2023-07-16T01:00:53;35.40;96.60
20200;DHT22;36284;37.236;-121.934;2023-07-16T01:03:20;35.30;96.80
20200;DHT22;36284;37.236;-121.934;2023-07-16T01:06:00;34.80;96.70
20200;DHT22;36284;37.236;-121.934;2023-07-16T01:09:00;35.00;96.80
20200;DHT22;36284;37.236;-121.934;2023-07-16T01:11:29;35.00;97.10
20200;DHT22;36284;37.236;-121.934;2023-07-16T01:13:59;34.80;96.80
20200;DHT22;36284;37.236;-121.934;2023-07-16T01:16:26;34.50;97.20
20200;DHT22;36284;37.236;-121.934;2023-07-16T01:18:53;34.30;97.40
20200;DHT22;36284;37.236;-121.934;2023-07-16T01:21:22;34.20;97.50
20200;DHT22;36284;37.236;-121.934;2023-07-16T01:24:04;34.10;97.40
20200;DHT22;36284;37.236;-121.934;2023-07-16T01:27:04;33.70;97.90
20200;DHT22;36284;37.236;-121.934;2023-07-16T01:29:46;33.70;98.10
20200;DHT22;36284;37.236;-121.934;2023-07-16T01:32:13;33.70;98.30
20200;DHT22;36284;37.236;-121.934;2023-07-16T01:34:42;33.70;98.30
20200;DHT22;36284;37.236;-121.934;2023-07-16T01:37:09;33.30;98.20
20200;DHT22;36284;37.236;-121.934;2023-07-16T01:39:36;33.40;97.90
20200;DHT22;36284;37.236;-121.934;2023-07-16T01:42:04;33.00;98.30
20200;DHT22;36284;37.236;-121.934;2023-07-16T01:44:31;32.90;98.70
20200;DHT22;36284;37.236;-121.934;2023-07-16T01:49:56;33.00;98.30
20200;DHT22;36284;37.236;-121.934;2023-07-16T01:52:22;32.90;98.50
20200;DHT22;36284;37.236;-121.934;2023-07-16T01:54:50;32.70;98.50
20200;DHT22;36284;37.236;-121.934;2023-07-16T01:57:17;32.70;97.70
20200;DHT22;36284;37.236;-121.934;2023-07-16T01:59:44;32.40;97.80
20200;DHT22;36284;37.236;-121.934;2023-07-16T02:02:12;32.40;98.00
20200;DHT22;36284;37.236;-121.934;2023-07-16T02:04:39;32.50;98.20
20200;DHT22;36284;37.236;-121.934;2023-07-16T02:07:06;32.40;98.70
20200;DHT22;36284;37.236;-121.934;2023-07-16T02:09:34;32.20;98.60
20200;DHT22;36284;37.236;-121.934;2023-07-16T02:12:01;31.80;99.20
20200;DHT22;36284;37.236;-121.934;2023-07-16T02:14:28;31.60;99.40
20200;DHT22;36284;37.236;-121.934;2023-07-16T02:16:55;31.50;99.50
20200;DHT22;36284;37.236;-121.934;2023-07-16T02:19:22;31.20;99.10
20200;DHT22;36284;37.236;-121.934;2023-07-16T02:21:49;31.10;99.60
20200;DHT22;36284;37.236;-121.934;2023-07-16T02:24:16;31.00;99.90
20200;DHT22;36284;37.236;-121.934;2023-07-16T02:26:43;30.90;99.90
20200;DHT22;36284;37.236;-121.934;2023-07-16T02:29:10;30.90;99.80
20200;DHT22;36284;37.236;-121.934;2023-07-16T02:31:37;30.80;99.90
20200;DHT22;36284;37.236;-121.934;2023-07-16T02:34:04;30.80;99.90
20200;DHT22;36284;37.236;-121.934;2023-07-16T02:36:31;30.70;99.90
20200;DHT22;36284;37.236;-121.934;2023-07-16T02:38:58;30.60;99.90
20200;DHT22;36284;37.236;-121.934;2023-07-16T02:41:25;30.60;99.90
20200;DHT22;36284;37.236;-121.934;2023-07-16T02:44:00;30.40;99.90
20200;DHT22;36284;37.236;-121.934;2023-07-16T02:46:27;30.30;99.90
20200;DHT22;36284;37.236;-121.934;2023-07-16T02:48:54;30.20;99.90
20200;DHT22;36284;37.236;-121.934;2023-07-16T02:51:21;30.20;99.90
20200;DHT22;36284;37.236;-121.934;2023-07-16T02:53:48;30.00;99.90
20200;DHT22;36284;37.236;-121.934;2023-07-16T02:56:15;30.00;99.90
20200;DHT22;36284;37.236;-121.934;2023-07-16T02:58:43;30.00;99.90
20200;DHT22;36284;37.236;-121.934;2023-07-16T03:01:10;29.80;99.90
20200;DHT22;36284;37.236;-121.934;2023-07-16T03:03:36;29.60;99.90
20200;DHT22;36284;37.236;-121.934;2023-07-16T03:06:04;29.60;99.90
20200;DHT22;36284;37.236;-121.934;2023-07-16T03:08:30;29.50;99.90
20200;DHT22;36284;37.236;-121.934;2023-07-16T03:10:58;29.30;99.90
20200;DHT22;36284;37.236;-121.934;2023-07-16T03:13:25;29.10;99.90
20200;DHT22;36284;37.236;-121.934;2023-07-16T03:15:52;29.00;99.90
20200;DHT22;36284;37.236;-121.934;2023-07-16T03:18:19;28.90;99.90
20200;DHT22;36284;37.236;-121.934;2023-07-16T03:20:48;28.70;99.90
20200;DHT22;36284;37.236;-121.934;2023-07-16T03:23:15;28.40;99.90
20200;DHT22;36284;37.236;-121.934;2023-07-16T03:25:41;28.30;99.90
20200;DHT22;36284;37.236;-121.934;2023-07-16T03:28:08;28.00;99.90
20200;DHT22;36284;37.236;-121.934;2023-07-16T03:30:35;27.70;99.90
20200;DHT22;36284;37.236;-121.934;2023-07-16T03:33:04;27.50;99.90
20200;DHT22;36284;37.236;-121.934;2023-07-16T03:35:31;27.40;99.90
20200;DHT22;36284;37.236;-121.934;2023-07-16T03:37:58;27.20;99.90
20200;DHT22;36284;37.236;-121.934;2023-07-16T03:40:26;27.00;99.90
20200;DHT22;36284;37.236;-121.934;2023-07-16T03:42:53;26.80;99.90
20200;DHT22;36284;37.236;-121.934;2023-07-16T03:45:20;26.70;99.90
20200;DHT22;36284;37.236;-121.934;2023-07-16T03:47:47;26.60;99.90
20200;DHT22;36284;37.236;-121.934;2023-07-16T03:50:14;26.40;99.90
20200;DHT22;36284;37.236;-121.934;2023-07-16T03:52:41;26.30;99.90
20200;DHT22;36284;37.236;-121.934;2023-07-16T03:55:08;26.20;99.90
20200;DHT22;36284;37.236;-121.934;2023-07-16T03:57:35;26.10;99.90
20200;DHT22;36284;37.236;-121.934;2023-07-16T04:00:05;25.90;99.90
20200;DHT22;36284;37.236;-121.934;2023-07-16T04:02:35;25.80;99.90
20200;DHT22;36284;37.236;-121.934;2023-07-16T04:05:03;25.70;99.90
20200;DHT22;36284;37.236;-121.934;2023-07-16T04:07:30;25.70;99.90
20200;DHT22;36284;37.236;-121.934;2023-07-16T04:09:57;25.50;99.90
20200;DHT22;36284;37.236;-121.934;2023-07-16T04:12:24;25.30;99.90
20200;DHT22;36284;37.236;-121.934;2023-07-16T04:14:56;25.30;99.90
20200;DHT22;36284;37.236;-121.934;2023-07-16T04:17:24;25.20;99.90
20200;DHT22;36284;37.236;-121.934;2023-07-16T04:19:52;25.10;99.90
20200;DHT22;36284;37.236;-121.934;2023-07-16T04:22:19;25.00;99.90
20200;DHT22;36284;37.236;-121.934;2023-07-16T04:24:46;24.90;99.90
20200;DHT22;36284;37.236;-121.934;2023-07-16T04:27:13;24.80;99.90
20200;DHT22;36284;37.236;-121.934;2023-07-16T04:29:40;24.70;99.90
20200;DHT22;36284;37.236;-121.934;2023-07-16T04:32:07;24.60;99.90
20200;DHT22;36284;37.236;-121.934;2023-07-16T04:34:34;24.50;99.90
20200;DHT22;36284;37.236;-121.934;2023-07-16T04:37:01;24.40;99.90
20200;DHT22;36284;37.236;-121.934;2023-07-16T04:39:28;24.30;99.90
20200;DHT22;36284;37.236;-121.934;2023-07-16T04:41:55;24.30;99.90
20200;DHT22;36284;37.236;-121.934;2023-07-16T04:44:22;24.20;99.90
20200;DHT22;36284;37.236;-121.934;2023-07-16T04:46:49;24.00;99.90
20200;DHT22;36284;37.236;-121.934;2023-07-16T04:49:16;23.90;99.90
20200;DHT22;36284;37.236;-121.934;2023-07-16T04:51:43;23.70;99.90
20200;DHT22;36284;37.236;-121.934;2023-07-16T04:54:09;23.70;99.90
20200;DHT22;36284;37.236;-121.934;2023-07-16T04:56:36;23.60;99.90
20200;DHT22;36284;37.236;-121.934;2023-07-16T04:59:03;23.60;99.90
20200;DHT22;36284;37.236;-121.934;2023-07-16T05:01:30;23.60;99.90
20200;DHT22;36284;37.236;-121.934;2023-07-16T05:03:57;23.50;99.90
20200;DHT22;36284;37.236;-121.934;2023-07-16T05:06:24;23.50;99.90
20200;DHT22;36284;37.236;-121.934;2023-07-16T05:08:51;23.40;99.90
20200;DHT22;36284;37.236;-121.934;2023-07-16T05:11:18;23.30;99.90
20200;DHT22;36284;37.236;-121.934;2023-07-16T05:13:45;23.20;99.90
20200;DHT22;36284;37.236;-121.934;2023-07-16T05:16:12;23.20;99.90
20200;DHT22;36284;37.236;-121.934;2023-07-16T05:18:39;23.00;99.90
20200;DHT22;36284;37.236;-121.934;2023-07-16T05:21:06;22.90;99.90
20200;DHT22;36284;37.236;-121.934;2023-07-16T05:23:33;22.80;99.90
20200;DHT22;36284;37.236;-121.934;2023-07-16T05:26:00;22.80;99.90
20200;DHT22;36284;37.236;-121.934;2023-07-16T05:28:27;22.80;99.90
20200;DHT22;36284;37.236;-121.934;2023-07-16T05:31:01;22.70;99.90
20200;DHT22;36284;37.236;-121.934;2023-07-16T05:33:28;22.60;99.90
20200;DHT22;36284;37.236;-121.934;2023-07-16T05:35:55;22.50;99.90
20200;DHT22;36284;37.236;-121.934;2023-07-16T05:38:22;22.50;99.90
20200;DHT22;36284;37.236;-121.934;2023-07-16T05:40:49;22.40;99.90
20200;DHT22;36284;37.236;-121.934;2023-07-16T05:43:16;22.30;99.90
20200;DHT22;36284;37.236;-121.934;2023-07-16T05:45:43;22.30;99.90
20200;DHT22;36284;37.236;-121.934;2023-07-16T05:48:10;22.20;99.90
20200;DHT22;36284;37.236;-121.934;2023-07-16T05:50:38;22.10;99.90
20200;DHT22;36284;37.236;-121.934;2023-07-16T05:53:05;22.10;99.90
20200;DHT22;36284;37.236;-121.934;2023-07-16T05:55:32;22.00;99.90
20200;DHT22;36284;37.236;-121.934;2023-07-16T05:57:58;21.90;99.90
20200;DHT22;36284;37.236;-121.934;2023-07-16T06:00:25;21.90;99.90
20200;DHT22;36284;37.236;-121.934;2023-07-16T06:02:52;21.90;99.90
20200;DHT22;36284;37.236;-121.934;2023-07-16T06:05:19;21.90;99.90
20200;DHT22;36284;37.236;-121.934;2023-07-16T06:07:46;21.80;99.90
20200;DHT22;36284;37.236;-121.934;2023-07-16T06:10:13;21.80;99.90
20200;DHT22;36284;37.236;-121.934;2023-07-16T06:12:40;21.80;99.90
20200;DHT22;36284;37.236;-121.934;2023-07-16T06:15:07;21.70;99.90
20200;DHT22;36284;37.236;-121.934;2023-07-16T06:17:34;21.70;99.90
20200;DHT22;36284;37.236;-121.934;2023-07-16T06:20:02;21.60;99.90
20200;DHT22;36284;37.236;-121.934;2023-07-16T06:22:30;21.60;99.90
20200;DHT22;36284;37.236;-121.934;2023-07-16T06:24:56;21.50;99.90
20200;DHT22;36284;37.236;-121.934;2023-07-16T06:27:23;21.50;99.90
20200;DHT22;36284;37.236;-121.934;2023-07-16T06:29:50;21.50;99.90
20200;DHT22;36284;37.236;-121.934;2023-07-16T06:32:17;21.40;99.90
20200;DHT22;36284;37.236;-121.934;2023-07-16T06:34:44;21.40;99.90
20200;DHT22;36284;37.236;-121.934;2023-07-16T06:37:11;21.30;99.90
20200;DHT22;36284;37.236;-121.934;2023-07-16T06:39:38;21.20;99.90
20200;DHT22;36284;37.236;-121.934;2023-07-16T06:42:05;21.10;99.90
20200;DHT22;36284;37.236;-121.934;2023-07-16T06:44:32;21.10;99.90
20200;DHT22;36284;37.236;-121.934;2023-07-16T06:46:59;21.10;99.90
20200;DHT22;36284;37.236;-121.934;2023-07-16T06:49:26;21.10;99.90
20200;DHT22;36284;37.236;-121.934;2023-07-16T06:51:53;21.00;99.90
20200;DHT22;36284;37.236;-121.934;2023-07-16T06:54:20;21.00;99.90
20200;DHT22;36284;37.236;-121.934;2023-07-16T06:56:47;20.90;99.90
20200;DHT22;36284;37.236;-121.934;2023-07-16T06:59:14;20.90;99.90
20200;DHT22;36284;37.236;-121.934;2023-07-16T07:01:41;20.80;99.90
20200;DHT22;36284;37.236;-121.934;2023-07-16T07:04:08;20.80;99.90
20200;DHT22;36284;37.236;-121.934;2023-07-16T07:06:34;20.80;99.90
20200;DHT22;36284;37.236;-121.934;2023-07-16T07:09:01;20.80;99.90
20200;DHT22;36284;37.236;-121.934;2023-07-16T07:11:28;20.80;99.90
20200;DHT22;36284;37.236;-121.934;2023-07-16T07:13:55;20.80;99.90
20200;DHT22;36284;37.236;-121.934;2023-07-16T07:16:24;20.50;99.90
20200;DHT22;36284;37.236;-121.934;2023-07-16T07:18:50;20.50;99.90
20200;DHT22;36284;37.236;-121.934;2023-07-16T07:21:17;20.40;99.90
20200;DHT22;36284;37.236;-121.934;2023-07-16T07:23:44;20.30;99.90
20200;DHT22;36284;37.236;-121.934;2023-07-16T07:26:11;20.30;99.90
20200;DHT22;36284;37.236;-121.934;2023-07-16T07:28:38;20.30;99.90
20200;DHT22;36284;37.236;-121.934;2023-07-16T07:31:05;20.10;99.90
20200;DHT22;36284;37.236;-121.934;2023-07-16T07:33:32;20.00;99.90
20200;DHT22;36284;37.236;-121.934;2023-07-16T07:35:59;20.00;99.90
20200;DHT22;36284;37.236;-121.934;2023-07-16T07:38:26;20.00;99.90
20200;DHT22;36284;37.236;-121.934;2023-07-16T07:40:53;20.00;99.90
20200;DHT22;36284;37.236;-121.934;2023-07-16T07:43:19;20.00;99.90
20200;DHT22;36284;37.236;-121.934;2023-07-16T07:45:46;20.00;99.90
20200;DHT22;36284;37.236;-121.934;2023-07-16T07:48:13;20.00;99.90
20200;DHT22;36284;37.236;-121.934;2023-07-16T07:50:40;19.90;99.90
20200;DHT22;36284;37.236;-121.934;2023-07-16T07:53:07;19.80;99.90
20200;DHT22;36284;37.236;-121.934;2023-07-16T07:55:35;19.80;99.90
20200;DHT22;36284;37.236;-121.934;2023-07-16T07:58:02;19.80;99.90
20200;DHT22;36284;37.236;-121.934;2023-07-16T08:00:29;19.70;99.90
20200;DHT22;36284;37.236;-121.934;2023-07-16T08:02:55;19.70;99.90
20200;DHT22;36284;37.236;-121.934;2023-07-16T08:05:22;19.60;99.90
20200;DHT22;36284;37.236;-121.934;2023-07-16T08:07:50;19.60;99.90
20200;DHT22;36284;37.236;-121.934;2023-07-16T08:10:18;19.60;99.90
20200;DHT22;36284;37.236;-121.934;2023-07-16T08:12:45;19.60;99.90
20200;DHT22;36284;37.236;-121.934;2023-07-16T08:15:12;19.50;99.90
20200;DHT22;36284;37.236;-121.934;2023-07-16T08:17:42;19.50;99.90
20200;DHT22;36284;37.236;-121.934;2023-07-16T08:20:10;19.40;99.90
20200;DHT22;36284;37.236;-121.934;2023-07-16T08:22:37;19.30;99.90
20200;DHT22;36284;37.236;-121.934;2023-07-16T08:25:05;19.30;99.90
20200;DHT22;36284;37.236;-121.934;2023-07-16T08:27:32;19.20;99.90
20200;DHT22;36284;37.236;-121.934;2023-07-16T08:29:59;19.20;99.90
20200;DHT22;36284;37.236;-121.934;2023-07-16T08:32:26;19.10;99.90
20200;DHT22;36284;37.236;-121.934;2023-07-16T08:34:53;19.10;99.90
20200;DHT22;36284;37.236;-121.934;2023-07-16T08:37:20;19.10;99.90
20200;DHT22;36284;37.236;-121.934;2023-07-16T08:39:52;19.00;99.90
20200;DHT22;36284;37.236;-121.934;2023-07-16T08:42:21;19.00;99.90
20200;DHT22;36284;37.236;-121.934;2023-07-16T08:44:49;18.90;99.90
20200;DHT22;36284;37.236;-121.934;2023-07-16T08:47:17;18.90;99.90
20200;DHT22;36284;37.236;-121.934;2023-07-16T08:49:54;18.90;99.90
20200;DHT22;36284;37.236;-121.934;2023-07-16T08:52:22;18.90;99.90
20200;DHT22;36284;37.236;-121.934;2023-07-16T08:54:49;18.80;99.90
20200;DHT22;36284;37.236;-121.934;2023-07-16T08:57:16;18.80;99.90
20200;DHT22;36284;37.236;-121.934;2023-07-16T08:59:44;18.80;99.90
20200;DHT22;36284;37.236;-121.934;2023-07-16T09:02:19;18.80;99.90
20200;DHT22;36284;37.236;-121.934;2023-07-16T09:04:49;18.70;99.90
20200;DHT22;36284;37.236;-121.934;2023-07-16T09:07:19;18.60;99.90
20200;DHT22;36284;37.236;-121.934;2023-07-16T09:09:57;18.60;99.90
20200;DHT22;36284;37.236;-121.934;2023-07-16T09:12:27;18.60;99.90
20200;DHT22;36284;37.236;-121.934;2023-07-16T09:14:54;18.60;99.90
20200;DHT22;36284;37.236;-121.934;2023-07-16T09:17:22;18.60;99.90
20200;DHT22;36284;37.236;-121.934;2023-07-16T09:19:51;18.50;99.90
20200;DHT22;36284;37.236;-121.934;2023-07-16T09:22:19;18.50;99.90
20200;DHT22;36284;37.236;-121.934;2023-07-16T09:24:47;18.50;99.90
20200;DHT22;36284;37.236;-121.934;2023-07-16T09:27:14;18.50;99.90
20200;DHT22;36284;37.236;-121.934;2023-07-16T09:29:41;18.50;99.90
20200;DHT22;36284;37.236;-121.934;2023-07-16T09:32:08;18.40;99.90
20200;DHT22;36284;37.236;-121.934;2023-07-16T09:34:36;18.50;99.90
20200;DHT22;36284;37.236;-121.934;2023-07-16T09:37:05;18.30;99.90
20200;DHT22;36284;37.236;-121.934;2023-07-16T09:39:33;18.20;99.90
20200;DHT22;36284;37.236;-121.934;2023-07-16T09:42:02;18.20;99.90
20200;DHT22;36284;37.236;-121.934;2023-07-16T09:44:29;18.00;99.90
20200;DHT22;36284;37.236;-121.934;2023-07-16T09:46:57;18.10;99.90
20200;DHT22;36284;37.236;-121.934;2023-07-16T09:49:25;18.00;99.90
20200;DHT22;36284;37.236;-121.934;2023-07-16T09:51:56;18.00;99.90
20200;DHT22;36284;37.236;-121.934;2023-07-16T09:54:25;18.00;99.90
20200;DHT22;36284;37.236;-121.934;2023-07-16T09:56:58;17.90;99.90
20200;DHT22;36284;37.236;-121.934;2023-07-16T09:59:28;18.00;99.90
20200;DHT22;36284;37.236;-121.934;2023-07-16T10:01:56;17.90;99.90
20200;DHT22;36284;37.236;-121.934;2023-07-16T10:04:24;17.90;99.90
20200;DHT22;36284;37.236;-121.934;2023-07-16T10:06:51;17.90;99.90
20200;DHT22;36284;37.236;-121.934;2023-07-16T10:09:34;17.80;99.90
20200;DHT22;36284;37.236;-121.934;2023-07-16T10:12:11;17.80;99.90
20200;DHT22;36284;37.236;-121.934;2023-07-16T10:14:47;17.70;99.90
20200;DHT22;36284;37.236;-121.934;2023-07-16T10:17:19;17.70;99.90
20200;DHT22;36284;37.236;-121.934;2023-07-16T10:22:14;17.60;99.90
20200;DHT22;36284;37.236;-121.934;2023-07-16T10:24:41;17.50;99.90
20200;DHT22;36284;37.236;-121.934;2023-07-16T10:27:08;17.50;99.90
20200;DHT22;36284;37.236;-121.934;2023-07-16T10:29:35;17.50;99.90
20200;DHT22;36284;37.236;-121.934;2023-07-16T10:32:03;17.50;99.90
20200;DHT22;36284;37.236;-121.934;2023-07-16T10:34:35;17.40;99.90
20200;DHT22;36284;37.236;-121.934;2023-07-16T10:37:03;17.40;99.90
20200;DHT22;36284;37.236;-121.934;2023-07-16T10:39:30;17.40;99.90
20200;DHT22;36284;37.236;-121.934;2023-07-16T10:41:57;17.40;99.90
20200;DHT22;36284;37.236;-121.934;2023-07-16T10:44:24;17.30;99.90
20200;DHT22;36284;37.236;-121.934;2023-07-16T10:46:52;17.30;99.90
20200;DHT22;36284;37.236;-121.934;2023-07-16T10:49:28;17.30;99.90
20200;DHT22;36284;37.236;-121.934;2023-07-16T10:51:55;17.30;99.90
20200;DHT22;36284;37.236;-121.934;2023-07-16T10:54:22;17.30;99.90
20200;DHT22;36284;37.236;-121.934;2023-07-16T10:56:51;17.40;99.90
20200;DHT22;36284;37.236;-121.934;2023-07-16T10:59:18;17.40;99.90
20200;DHT22;36284;37.236;-121.934;2023-07-16T11:01:45;17.30;99.90
20200;DHT22;36284;37.236;-121.934;2023-07-16T11:04:12;17.30;99.90
20200;DHT22;36284;37.236;-121.934;2023-07-16T11:06:39;17.20;99.90
20200;DHT22;36284;37.236;-121.934;2023-07-16T11:09:09;17.20;99.90
20200;DHT22;36284;37.236;-121.934;2023-07-16T11:11:37;17.20;99.90
20200;DHT22;36284;37.236;-121.934;2023-07-16T11:14:08;17.20;99.90
20200;DHT22;36284;37.236;-121.934;2023-07-16T11:16:35;17.20;99.90
20200;DHT22;36284;37.236;-121.934;2023-07-16T11:19:06;17.20;99.90
20200;DHT22;36284;37.236;-121.934;2023-07-16T11:21:33;17.20;99.90
20200;DHT22;36284;37.236;-121.934;2023-07-16T11:24:12;17.20;99.90
20200;DHT22;36284;37.236;-121.934;2023-07-16T11:26:50;17.10;99.90
20200;DHT22;36284;37.236;-121.934;2023-07-16T11:29:17;17.10;99.90
20200;DHT22;36284;37.236;-121.934;2023-07-16T11:31:49;17.10;99.90
20200;DHT22;36284;37.236;-121.934;2023-07-16T11:34:16;17.00;99.90
20200;DHT22;36284;37.236;-121.934;2023-07-16T11:36:43;17.10;99.90
20200;DHT22;36284;37.236;-121.934;2023-07-16T11:39:13;17.20;99.90
20200;DHT22;36284;37.236;-121.934;2023-07-16T11:41:40;17.20;99.90
20200;DHT22;36284;37.236;-121.934;2023-07-16T11:44:07;17.20;99.90
20200;DHT22;36284;37.236;-121.934;2023-07-16T11:46:35;17.20;99.90
20200;DHT22;36284;37.236;-121.934;2023-07-16T11:49:02;17.10;99.90
20200;DHT22;36284;37.236;-121.934;2023-07-16T11:51:30;17.10;99.90
20200;DHT22;36284;37.236;-121.934;2023-07-16T11:53:57;17.20;99.90
20200;DHT22;36284;37.236;-121.934;2023-07-16T11:56:24;17.10;99.90
20200;DHT22;36284;37.236;-121.934;2023-07-16T11:58:51;17.10;99.90
20200;DHT22;36284;37.236;-121.934;2023-07-16T12:01:18;17.10;99.90
20200;DHT22;36284;37.236;-121.934;2023-07-16T12:03:44;17.00;99.90
20200;DHT22;36284;37.236;-121.934;2023-07-16T12:06:11;17.00;99.90
20200;DHT22;36284;37.236;-121.934;2023-07-16T12:08:38;17.00;99.90
20200;DHT22;36284;37.236;-121.934;2023-07-16T12:11:05;16.90;99.90
20200;DHT22;36284;37.236;-121.934;2023-07-16T12:13:32;17.00;99.90
20200;DHT22;36284;37.236;-121.934;2023-07-16T12:15:59;17.00;99.90
20200;DHT22;36284;37.236;-121.934;2023-07-16T12:18:26;17.10;99.90
20200;DHT22;36284;37.236;-121.934;2023-07-16T12:20:53;17.00;99.90
20200;DHT22;36284;37.236;-121.934;2023-07-16T12:23:20;16.90;99.90
20200;DHT22;36284;37.236;-121.934;2023-07-16T12:25:48;17.00;99.90
20200;DHT22;36284;37.236;-121.934;2023-07-16T12:28:15;16.90;99.90
20200;DHT22;36284;37.236;-121.934;2023-07-16T12:30:42;16.80;99.90
20200;DHT22;36284;37.236;-121.934;2023-07-16T12:33:09;16.80;99.90
20200;DHT22;36284;37.236;-121.934;2023-07-16T12:35:36;16.90;99.90
20200;DHT22;36284;37.236;-121.934;2023-07-16T12:38:03;16.80;99.90
20200;DHT22;36284;37.236;-121.934;2023-07-16T12:40:30;16.80;99.90
20200;DHT22;36284;37.236;-121.934;2023-07-16T12:42:57;16.70;99.90
20200;DHT22;36284;37.236;-121.934;2023-07-16T12:45:24;16.70;99.90
20200;DHT22;36284;37.236;-121.934;2023-07-16T12:47:51;16.60;99.90
20200;DHT22;36284;37.236;-121.934;2023-07-16T12:50:18;16.50;99.90
20200;DHT22;36284;37.236;-121.934;2023-07-16T12:52:45;16.50;99.90
20200;DHT22;36284;37.236;-121.934;2023-07-16T12:55:12;16.60;99.90
20200;DHT22;36284;37.236;-121.934;2023-07-16T12:57:40;16.70;99.90
20200;DHT22;36284;37.236;-121.934;2023-07-16T13:00:07;16.70;99.90
20200;DHT22;36284;37.236;-121.934;2023-07-16T13:02:38;16.80;99.90
20200;DHT22;36284;37.236;-121.934;2023-07-16T13:05:05;16.80;99.90
20200;DHT22;36284;37.236;-121.934;2023-07-16T13:07:32;16.90;99.90
20200;DHT22;36284;37.236;-121.934;2023-07-16T13:10:00;16.90;99.90
20200;DHT22;36284;37.236;-121.934;2023-07-16T13:12:27;16.90;99.90
20200;DHT22;36284;37.236;-121.934;2023-07-16T13:14:54;16.80;99.90
20200;DHT22;36284;37.236;-121.934;2023-07-16T13:17:20;16.90;99.90
20200;DHT22;36284;37.236;-121.934;2023-07-16T13:19:47;16.90;99.90
20200;DHT22;36284;37.236;-121.934;2023-07-16T13:22:14;17.10;99.90
20200;DHT22;36284;37.236;-121.934;2023-07-16T13:24:41;17.30;99.90
20200;DHT22;36284;37.236;-121.934;2023-07-16T13:27:18;17.30;99.90
20200;DHT22;36284;37.236;-121.934;2023-07-16T13:29:45;17.30;99.90
20200;DHT22;36284;37.236;-121.934;2023-07-16T13:32:12;17.30;99.90
20200;DHT22;36284;37.236;-121.934;2023-07-16T13:34:39;17.40;99.90
20200;DHT22;36284;37.236;-121.934;2023-07-16T13:37:06;17.50;99.90
20200;DHT22;36284;37.236;-121.934;2023-07-16T13:39:33;17.50;99.90
20200;DHT22;36284;37.236;-121.934;2023-07-16T13:42:00;17.70;99.90
20200;DHT22;36284;37.236;-121.934;2023-07-16T13:44:27;17.90;99.90
20200;DHT22;36284;37.236;-121.934;2023-07-16T13:46:54;18.00;99.90
20200;DHT22;36284;37.236;-121.934;2023-07-16T13:49:21;18.10;99.90
20200;DHT22;36284;37.236;-121.934;2023-07-16T13:51:48;18.10;99.90
20200;DHT22;36284;37.236;-121.934;2023-07-16T13:54:15;18.10;99.90
20200;DHT22;36284;37.236;-121.934;2023-07-16T13:56:42;18.20;99.90
20200;DHT22;36284;37.236;-121.934;2023-07-16T13:59:08;18.40;99.90
20200;DHT22;36284;37.236;-121.934;2023-07-16T14:01:39;19.10;99.90
20200;DHT22;36284;37.236;-121.934;2023-07-16T14:04:06;20.40;99.90
20200;DHT22;36284;37.236;-121.934;2023-07-16T14:06:33;21.40;99.90
20200;DHT22;36284;37.236;-121.934;2023-07-16T14:09:02;22.00;99.90
20200;DHT22;36284;37.236;-121.934;2023-07-16T14:11:31;21.90;99.90
20200;DHT22;36284;37.236;-121.934;2023-07-16T14:13:58;21.70;99.90
20200;DHT22;36284;37.236;-121.934;2023-07-16T14:16:25;21.50;99.90
20200;DHT22;36284;37.236;-121.934;2023-07-16T14:18:52;20.80;99.90
20200;DHT22;36284;37.236;-121.934;2023-07-16T14:21:20;20.80;99.90
20200;DHT22;36284;37.236;-121.934;2023-07-16T14:23:47;21.10;99.90
20200;DHT22;36284;37.236;-121.934;2023-07-16T14:26:14;20.80;99.90
20200;DHT22;36284;37.236;-121.934;2023-07-16T14:28:41;20.50;99.90
20200;DHT22;36284;37.236;-121.934;2023-07-16T14:31:08;20.20;99.90
20200;DHT22;36284;37.236;-121.934;2023-07-16T14:33:35;21.40;99.90
20200;DHT22;36284;37.236;-121.934;2023-07-16T14:36:02;22.80;99.90
20200;DHT22;36284;37.236;-121.934;2023-07-16T14:38:29;22.80;99.90
20200;DHT22;36284;37.236;-121.934;2023-07-16T14:40:56;22.30;99.90
20200;DHT22;36284;37.236;-121.934;2023-07-16T14:43:23;21.70;99.90
20200;DHT22;36284;37.236;-121.934;2023-07-16T14:45:50;23.40;99.90
20200;DHT22;36284;37.236;-121.934;2023-07-16T14:48:17;25.90;99.90
20200;DHT22;36284;37.236;-121.934;2023-07-16T14:50:44;25.90;99.90
20200;DHT22;36284;37.236;-121.934;2023-07-16T14:53:11;26.50;99.90
20200;DHT22;36284;37.236;-121.934;2023-07-16T14:55:39;27.50;99.90
20200;DHT22;36284;37.236;-121.934;2023-07-16T14:58:06;26.70;99.90
20200;DHT22;36284;37.236;-121.934;2023-07-16T15:00:33;25.50;99.90